Time;durP1;ratioP1;P1;durP2;ratioP2;P2;SDS_P1;SDS_P2;PMS_P1;PMS_P2;Temp;Humidity;BMP_temperature;BMP_pressure;BME280_temperature;BME280_humidity;BME280_pressure;Samples;Min_cycle;Max_cycle;Signal;HPM_P1;HPM_P2
2022/10/22 00:00:26;;;;;;;13.38;7.90;;;13.70;99.90;;;;;;5084471;28;20088;-68
2022/10/22 00:02:51;;;;;;;10.68;8.05;;;13.60;99.90;;;;;;5078981;28;20489;-68
2022/10/22 00:05:17;;;;;;;11.65;7.97;;;13.70;99.90;;;;;;5083940;28;20044;-68
2022/10/22 00:07:43;;;;;;;12.23;8.35;;;13.60;99.90;;;;;;5084182;28;20842;-68
2022/10/22 00:10:09;;;;;;;9.63;7.75;;;13.60;99.90;;;;;;5066585;28;20073;-68
2022/10/22 00:12:34;;;;;;;12.55;8.50;;;13.50;99.90;;;;;;5085812;28;20045;-68
2022/10/22 00:15:00;;;;;;;11.23;8.10;;;13.50;99.90;;;;;;5078572;28;20044;-68
2022/10/22 00:17:26;;;;;;;11.55;8.20;;;13.60;99.90;;;;;;5083070;28;20060;-68
2022/10/22 00:19:51;;;;;;;10.40;7.95;;;13.60;99.90;;;;;;5086800;28;20048;-68
2022/10/22 00:22:17;;;;;;;14.75;8.38;;;13.60;99.90;;;;;;5086750;28;20044;-68
2022/10/22 00:24:43;;;;;;;11.20;7.88;;;13.60;99.90;;;;;;5087746;28;20072;-68
2022/10/22 00:27:10;;;;;;;11.10;8.38;;;13.60;99.90;;;;;;5069935;28;20122;-68
2022/10/22 00:29:36;;;;;;;11.55;7.97;;;13.60;99.90;;;;;;5086495;28;20068;-68
2022/10/22 00:32:03;;;;;;;14.23;8.77;;;13.60;99.90;;;;;;5086418;28;20052;-68
2022/10/22 00:34:28;;;;;;;12.95;8.15;;;13.60;99.90;;;;;;5069567;28;20051;-68
2022/10/22 00:36:54;;;;;;;11.05;8.57;;;13.60;99.90;;;;;;5088366;28;20045;-68
2022/10/22 00:39:23;;;;;;;11.05;8.20;;;13.50;99.90;;;;;;5086638;28;20048;-68
2022/10/22 00:41:50;;;;;;;11.43;8.23;;;13.50;99.90;;;;;;5087838;28;20048;-68
2022/10/22 00:44:54;;;;;;;10.48;7.68;;;13.50;99.90;;;;;;5084282;28;20040;-68
2022/10/22 00:47:23;;;;;;;11.05;8.20;;;13.50;99.90;;;;;;5069643;28;20056;-68
2022/10/22 00:49:52;;;;;;;14.15;7.97;;;13.50;99.90;;;;;;5072850;28;20048;-68
2022/10/22 00:52:18;;;;;;;12.77;8.65;;;13.50;99.90;;;;;;5084595;28;20056;-68
2022/10/22 00:54:44;;;;;;;11.10;8.25;;;13.50;99.90;;;;;;5075238;28;20048;-68
2022/10/22 00:57:10;;;;;;;10.70;8.07;;;13.40;99.90;;;;;;5069252;28;20586;-68
2022/10/22 00:59:36;;;;;;;12.38;8.85;;;13.30;99.90;;;;;;5085415;28;20054;-68
2022/10/22 01:02:03;;;;;;;10.27;8.18;;;13.30;99.90;;;;;;5064711;28;20123;-68
2022/10/22 01:04:28;;;;;;;12.93;8.45;;;13.40;99.90;;;;;;5078122;28;20108;-68
2022/10/22 01:06:54;;;;;;;14.38;8.88;;;13.30;99.90;;;;;;5069195;28;20040;-68
2022/10/22 01:09:41;;;;;;;13.45;9.75;;;13.40;99.90;;;;;;5068767;28;20037;-68
2022/10/22 01:12:15;;;;;;;11.38;9.43;;;13.40;99.90;;;;;;5069784;28;20068;-68
2022/10/22 01:14:54;;;;;;;11.32;9.18;;;13.40;99.90;;;;;;5062669;28;20055;-68
2022/10/22 01:17:52;;;;;;;11.50;8.82;;;13.40;99.90;;;;;;5068678;28;20040;-68
2022/10/22 01:20:54;;;;;;;12.13;9.30;;;13.40;99.90;;;;;;5050009;28;20080;-68
2022/10/22 01:24:09;;;;;;;13.40;9.50;;;13.40;99.90;;;;;;5085905;28;20041;-68
2022/10/22 01:26:53;;;;;;;14.13;8.80;;;13.30;99.90;;;;;;5083644;28;20052;-68
2022/10/22 01:29:32;;;;;;;12.68;8.63;;;13.40;99.90;;;;;;5085441;28;20060;-68
2022/10/22 01:32:03;;;;;;;12.38;8.77;;;13.50;99.90;;;;;;5068598;28;20515;-68
2022/10/22 01:34:30;;;;;;;13.75;8.55;;;13.40;99.90;;;;;;5068632;28;20064;-68
2022/10/22 01:36:58;;;;;;;13.15;9.40;;;13.50;99.90;;;;;;5085410;28;20048;-68
2022/10/22 01:39:27;;;;;;;12.70;8.77;;;13.50;99.90;;;;;;5066201;28;20083;-68
2022/10/22 01:41:57;;;;;;;11.35;8.88;;;13.60;99.90;;;;;;5086244;28;20053;-68
2022/10/22 01:44:24;;;;;;;;;;;13.50;99.90;;;;;;5068577;28;20056;-68
2022/10/22 01:46:55;;;;;;;11.75;8.80;;;13.50;99.90;;;;;;5081809;28;19921;-68
2022/10/22 01:49:33;;;;;;;11.23;8.05;;;13.50;99.90;;;;;;5085034;28;20036;-68
2022/10/22 01:52:25;;;;;;;16.80;9.05;;;13.50;99.90;;;;;;5077906;28;20053;-68
2022/10/22 01:55:06;;;;;;;13.50;9.05;;;13.50;99.90;;;;;;5059921;28;20095;-68
2022/10/22 01:57:51;;;;;;;12.93;8.95;;;13.50;99.90;;;;;;5072747;28;20053;-68
2022/10/22 02:00:18;;;;;;;12.20;8.55;;;13.50;99.90;;;;;;5085010;28;20078;-68
2022/10/22 02:03:06;;;;;;;13.82;8.57;;;13.50;99.90;;;;;;5084366;28;20049;-68
2022/10/22 02:05:44;;;;;;;15.32;9.05;;;13.50;99.90;;;;;;5085360;28;20068;-68
2022/10/22 02:08:16;;;;;;;14.52;8.93;;;13.50;99.90;;;;;;5086432;28;20055;-68
2022/10/22 02:10:45;;;;;;;13.85;8.40;;;13.50;99.90;;;;;;5068077;28;20072;-68
2022/10/22 02:13:16;;;;;;;14.98;9.10;;;13.50;99.90;;;;;;5085663;28;20067;-68
2022/10/22 02:15:44;;;;;;;13.02;8.65;;;13.40;99.90;;;;;;5067872;28;20559;-68
2022/10/22 02:18:11;;;;;;;16.08;8.60;;;13.40;99.90;;;;;;5066970;28;20056;-68
2022/10/22 02:20:40;;;;;;;15.35;8.40;;;13.50;99.90;;;;;;5085708;28;20134;-68
2022/10/22 02:23:07;;;;;;;12.23;8.70;;;13.40;99.90;;;;;;5067264;28;20813;-68
2022/10/22 02:25:39;;;;;;;10.48;7.82;;;13.40;99.90;;;;;;5083791;28;20056;-68
2022/10/22 02:28:14;;;;;;;13.25;8.63;;;13.40;99.90;;;;;;5085411;28;20051;-68
2022/10/22 02:30:42;;;;;;;14.60;8.32;;;13.30;99.90;;;;;;5084381;28;20056;-68
2022/10/22 02:33:20;;;;;;;14.13;8.65;;;13.40;99.90;;;;;;5068129;28;20075;-68
2022/10/22 02:35:49;;;;;;;9.82;7.13;;;13.30;99.90;;;;;;5066898;28;20052;-68
2022/10/22 02:38:16;;;;;;;12.45;8.05;;;13.40;99.90;;;;;;5084914;28;20079;-68
2022/10/22 02:40:41;;;;;;;15.45;8.52;;;13.30;99.90;;;;;;5085996;28;20037;-68
2022/10/22 02:43:07;;;;;;;12.70;8.18;;;13.40;99.90;;;;;;5084820;28;20531;-68
2022/10/22 02:45:34;;;;;;;13.13;8.77;;;13.40;99.90;;;;;;5067779;28;20052;-68
2022/10/22 02:48:00;;;;;;;10.77;8.18;;;13.40;99.90;;;;;;5072528;28;20063;-68
2022/10/22 02:50:25;;;;;;;13.05;9.10;;;13.30;99.90;;;;;;5085923;28;20063;-68
2022/10/22 02:52:51;;;;;;;12.40;8.85;;;13.30;99.90;;;;;;5066722;28;20040;-68
2022/10/22 02:55:17;;;;;;;14.35;9.57;;;13.30;99.90;;;;;;5084837;28;20117;-68
2022/10/22 02:57:42;;;;;;;16.33;8.85;;;13.30;99.90;;;;;;5063782;28;20152;-69
2022/10/22 03:00:10;;;;;;;19.17;10.50;;;13.20;99.90;;;;;;5067447;28;20053;-68
2022/10/22 03:02:35;;;;;;;12.90;9.23;;;13.30;99.90;;;;;;5066710;28;20074;-68
2022/10/22 03:05:02;;;;;;;12.48;9.02;;;13.30;99.90;;;;;;5083694;28;20049;-68
2022/10/22 03:07:27;;;;;;;14.05;9.27;;;13.20;99.90;;;;;;5066905;28;20040;-68
2022/10/22 03:09:53;;;;;;;16.83;9.90;;;13.20;99.90;;;;;;5084258;28;20056;-68
2022/10/22 03:12:19;;;;;;;18.33;9.65;;;13.20;99.90;;;;;;5085417;28;20044;-68
2022/10/22 03:14:44;;;;;;;11.23;9.23;;;13.20;99.90;;;;;;5085231;28;20041;-68
2022/10/22 03:17:10;;;;;;;14.90;9.73;;;13.20;99.90;;;;;;5063529;28;20067;-68
2022/10/22 03:19:36;;;;;;;14.43;8.93;;;13.20;99.90;;;;;;5084582;28;20084;-68
2022/10/22 03:22:14;;;;;;;14.23;9.15;;;13.20;99.90;;;;;;5083523;28;20108;-68
2022/10/22 03:24:43;;;;;;;12.82;9.52;;;13.20;99.90;;;;;;5074127;28;20051;-68
2022/10/22 03:27:11;;;;;;;13.60;9.68;;;13.10;99.90;;;;;;5070959;28;20049;-68
2022/10/22 03:29:39;;;;;;;11.68;9.70;;;13.10;99.90;;;;;;5084647;28;20052;-68
2022/10/22 03:32:05;;;;;;;14.48;9.60;;;13.20;99.90;;;;;;5084307;28;20051;-68
2022/10/22 03:34:31;;;;;;;16.13;9.63;;;13.20;99.90;;;;;;5044271;28;20041;-68
2022/10/22 03:36:59;;;;;;;14.90;9.80;;;13.10;99.90;;;;;;5082950;28;20049;-68
2022/10/22 03:39:26;;;;;;;18.85;11.10;;;13.10;99.90;;;;;;5067131;28;20080;-68
2022/10/22 03:41:52;;;;;;;18.20;10.73;;;13.20;99.90;;;;;;5084414;28;20100;-68
2022/10/22 03:44:19;;;;;;;14.82;9.73;;;13.20;99.90;;;;;;5066096;28;20080;-68
2022/10/22 03:46:44;;;;;;;12.38;10.05;;;13.20;99.90;;;;;;5082288;28;20100;-68
2022/10/22 03:49:10;;;;;;;18.20;10.60;;;13.20;99.90;;;;;;5067136;28;20052;-68
2022/10/22 03:51:36;;;;;;;16.67;10.18;;;13.20;99.90;;;;;;5070490;28;20048;-68
2022/10/22 03:54:03;;;;;;;18.77;11.77;;;13.20;99.90;;;;;;5070714;28;20055;-68
2022/10/22 03:56:28;;;;;;;14.48;10.35;;;13.20;99.90;;;;;;5087966;28;20055;-68
2022/10/22 03:58:56;;;;;;;14.40;10.95;;;13.20;99.90;;;;;;5089195;28;20045;-68
2022/10/22 04:01:22;;;;;;;15.18;10.88;;;13.30;99.90;;;;;;5089279;28;20053;-68
2022/10/22 04:03:48;;;;;;;17.98;10.73;;;13.20;99.90;;;;;;5088860;28;20051;-68
2022/10/22 04:06:14;;;;;;;17.10;11.48;;;13.30;99.90;;;;;;5088038;28;20500;-68
2022/10/22 04:08:42;;;;;;;19.15;11.38;;;13.20;99.90;;;;;;5088475;28;20715;-68
2022/10/22 04:11:08;;;;;;;13.95;9.90;;;13.20;99.90;;;;;;5069687;28;20036;-68
2022/10/22 04:13:34;;;;;;;16.67;10.35;;;13.30;99.90;;;;;;5088332;28;20048;-68
2022/10/22 04:16:11;;;;;;;19.02;11.45;;;13.30;99.90;;;;;;5092280;28;20037;-68
2022/10/22 04:18:38;;;;;;;14.10;11.25;;;13.30;99.90;;;;;;5070296;28;20396;-69
2022/10/22 04:21:05;;;;;;;16.40;11.18;;;13.20;99.90;;;;;;5069936;28;20076;-68
2022/10/22 04:23:31;;;;;;;16.88;10.45;;;13.20;99.90;;;;;;5070021;28;20049;-68
2022/10/22 04:26:02;;;;;;;15.90;10.45;;;13.20;99.90;;;;;;5087798;28;20044;-68
2022/10/22 04:28:28;;;;;;;17.38;10.77;;;13.10;99.90;;;;;;5069716;28;20056;-68
2022/10/22 04:30:54;;;;;;;14.77;10.60;;;13.10;99.90;;;;;;5070061;28;20068;-68
2022/10/22 04:33:20;;;;;;;17.58;11.23;;;13.10;99.90;;;;;;5088204;28;20496;-68
2022/10/22 04:35:46;;;;;;;15.88;10.45;;;13.20;99.90;;;;;;5085873;28;20041;-68
2022/10/22 04:38:11;;;;;;;16.20;11.00;;;13.20;99.90;;;;;;5051308;28;20059;-68
2022/10/22 04:40:37;;;;;;;18.98;10.90;;;13.20;99.90;;;;;;5064799;28;20655;-68
2022/10/22 04:43:03;;;;;;;17.73;10.88;;;13.20;99.90;;;;;;5086067;28;20045;-68
2022/10/22 04:45:29;;;;;;;15.85;11.43;;;13.10;99.90;;;;;;5063683;28;20048;-68
2022/10/22 04:47:55;;;;;;;17.42;11.15;;;13.30;99.90;;;;;;5082361;28;20043;-68
2022/10/22 04:50:21;;;;;;;18.13;10.82;;;13.20;99.90;;;;;;5067601;28;20049;-68
2022/10/22 04:52:46;;;;;;;16.33;10.73;;;13.10;99.90;;;;;;5066149;28;20040;-68
2022/10/22 04:55:12;;;;;;;18.02;10.95;;;13.30;99.90;;;;;;5066044;28;20064;-68
2022/10/22 04:57:37;;;;;;;13.63;10.45;;;13.10;99.90;;;;;;5067314;28;20048;-68
2022/10/22 05:00:04;;;;;;;18.02;11.63;;;13.20;99.90;;;;;;5068926;28;20515;-68
2022/10/22 05:02:30;;;;;;;15.88;11.00;;;13.20;99.90;;;;;;5085150;28;20036;-68
2022/10/22 05:04:55;;;;;;;15.98;10.43;;;13.20;99.90;;;;;;5067267;28;20054;-69
2022/10/22 05:07:22;;;;;;;16.17;10.68;;;13.10;99.90;;;;;;5082395;28;20040;-68
2022/10/22 05:09:48;;;;;;;17.42;11.38;;;13.10;99.90;;;;;;5064380;28;20048;-68
2022/10/22 05:12:14;;;;;;;17.45;9.70;;;13.10;99.90;;;;;;5068950;28;20040;-68
2022/10/22 05:14:40;;;;;;;16.25;10.20;;;13.10;99.90;;;;;;5068107;28;20052;-68
2022/10/22 05:17:05;;;;;;;16.30;10.68;;;13.10;99.90;;;;;;5067777;28;20075;-68
2022/10/22 05:19:32;;;;;;;16.15;9.60;;;13.20;99.90;;;;;;5085784;28;20044;-68
2022/10/22 05:22:00;;;;;;;15.73;9.88;;;13.20;99.90;;;;;;5084424;28;20096;-68
2022/10/22 05:24:26;;;;;;;17.77;9.65;;;13.10;99.90;;;;;;5067953;28;20099;-68
2022/10/22 05:26:54;;;;;;;15.98;9.98;;;13.20;99.90;;;;;;5084378;28;20048;-68
2022/10/22 05:29:20;;;;;;;14.25;9.77;;;13.20;99.90;;;;;;5067018;28;20108;-68
2022/10/22 05:31:46;;;;;;;16.15;10.52;;;13.20;99.90;;;;;;5059370;28;20116;-68
2022/10/22 05:34:12;;;;;;;14.38;9.75;;;13.30;99.90;;;;;;5068084;28;20048;-68
2022/10/22 05:36:38;;;;;;;18.45;10.00;;;13.30;99.90;;;;;;5080033;28;20044;-68
2022/10/22 05:39:04;;;;;;;15.27;9.27;;;13.20;99.90;;;;;;5069073;28;20040;-68
2022/10/22 05:41:31;;;;;;;12.23;9.65;;;13.30;99.90;;;;;;5085457;28;20049;-68
2022/10/22 05:43:58;;;;;;;16.67;10.27;;;13.20;99.90;;;;;;5080008;28;20049;-68
2022/10/22 05:46:28;;;;;;;15.70;10.32;;;13.30;99.90;;;;;;5061834;28;20037;-68
2022/10/22 05:48:59;;;;;;;15.45;9.50;;;13.30;99.90;;;;;;5068005;28;20095;-68
2022/10/22 05:51:30;;;;;;;16.55;9.77;;;13.20;99.90;;;;;;5086200;28;20051;-69
2022/10/22 05:53:58;;;;;;;17.45;9.43;;;13.20;99.90;;;;;;5085075;28;20052;-68
2022/10/22 05:56:25;;;;;;;16.25;10.60;;;13.20;99.90;;;;;;5067644;28;20080;-68
2022/10/22 05:58:51;;;;;;;13.55;9.77;;;13.30;99.90;;;;;;5072439;28;20428;-68
2022/10/22 06:01:23;;;;;;;19.40;10.32;;;13.30;99.90;;;;;;5086808;28;20052;-68
2022/10/22 06:03:52;;;;;;;20.25;10.43;;;13.30;99.90;;;;;;5068062;28;20052;-68
2022/10/22 06:06:47;;;;;;;14.57;10.45;;;13.40;99.90;;;;;;5056249;28;20039;-68
2022/10/22 06:09:21;;;;;;;14.93;9.82;;;13.40;99.90;;;;;;5084189;28;20512;-68
2022/10/22 06:11:47;;;;;;;15.35;10.05;;;13.40;99.90;;;;;;5067493;28;20052;-68
2022/10/22 06:14:13;;;;;;;16.77;10.15;;;13.30;99.90;;;;;;5067529;28;20083;-68
2022/10/22 06:16:39;;;;;;;15.15;10.00;;;13.40;99.90;;;;;;5086300;28;20451;-68
2022/10/22 06:19:05;;;;;;;16.98;9.65;;;13.30;99.90;;;;;;5084291;28;20127;-68
2022/10/22 06:21:31;;;;;;;15.30;9.75;;;13.40;99.90;;;;;;5086407;28;20123;-68
2022/10/22 06:23:59;;;;;;;17.10;10.55;;;13.40;99.90;;;;;;5062816;28;20049;-68
2022/10/22 06:26:25;;;;;;;15.93;10.77;;;13.30;99.90;;;;;;5082267;28;20485;-69
2022/10/22 06:28:51;;;;;;;16.75;10.73;;;13.30;99.90;;;;;;5067814;28;20056;-68
2022/10/22 06:31:17;;;;;;;16.15;9.77;;;13.40;99.90;;;;;;5050105;28;20150;-68
2022/10/22 06:33:42;;;;;;;15.93;10.07;;;13.40;99.90;;;;;;5083821;28;20068;-68
2022/10/22 06:36:11;;;;;;;15.75;9.25;;;13.30;99.90;;;;;;5076346;28;20052;-68
2022/10/22 06:38:36;;;;;;;15.80;9.82;;;13.30;99.90;;;;;;5084487;28;20090;-68
2022/10/22 06:41:04;;;;;;;18.42;10.10;;;13.40;99.90;;;;;;5084773;28;20494;-68
2022/10/22 06:43:30;;;;;;;12.43;9.55;;;13.30;99.90;;;;;;5085421;28;20044;-68
2022/10/22 06:46:06;;;;;;;15.27;9.70;;;13.40;99.90;;;;;;5085777;28;20185;-68
2022/10/22 06:48:32;;;;;;;14.18;9.15;;;13.30;99.90;;;;;;5083913;28;20059;-68
2022/10/22 06:51:06;;;;;;;16.48;9.90;;;13.40;99.90;;;;;;5083260;28;20048;-65
2022/10/22 06:53:32;;;;;;;16.08;10.02;;;13.40;99.90;;;;;;5048959;28;20136;-69
2022/10/22 06:55:58;;;;;;;17.55;9.80;;;13.40;99.90;;;;;;5050251;28;20109;-69
2022/10/22 06:58:23;;;;;;;17.60;8.68;;;13.50;99.90;;;;;;5053391;28;20075;-69
2022/10/22 07:00:49;;;;;;;13.25;10.00;;;13.40;99.90;;;;;;5059654;28;21282;-68
2022/10/22 07:03:15;;;;;;;16.45;9.38;;;13.50;99.90;;;;;;5049225;28;20058;-66
2022/10/22 07:05:41;;;;;;;20.85;9.93;;;13.40;99.90;;;;;;5074196;28;20108;-66
2022/10/22 07:08:07;;;;;;;18.55;10.10;;;13.60;99.90;;;;;;5060940;28;20056;-67
2022/10/22 07:10:33;;;;;;;15.93;10.05;;;13.60;99.90;;;;;;5061678;28;20504;-68
2022/10/22 07:12:58;;;;;;;15.40;9.77;;;13.60;99.90;;;;;;5051096;28;20079;-67
2022/10/22 07:15:24;;;;;;;17.75;10.45;;;13.60;99.90;;;;;;5058608;28;20052;-67
2022/10/22 07:17:52;;;;;;;15.00;9.75;;;13.60;99.90;;;;;;5060414;28;20148;-67
2022/10/22 07:20:20;;;;;;;16.92;10.00;;;13.70;99.90;;;;;;5076909;28;20350;-67
2022/10/22 07:22:46;;;;;;;13.80;8.95;;;13.70;99.90;;;;;;5048905;28;20045;-67
2022/10/22 07:25:11;;;;;;;17.25;9.65;;;13.80;99.90;;;;;;5062813;28;20047;-66
2022/10/22 07:27:37;;;;;;;17.48;9.52;;;13.70;99.90;;;;;;5050195;28;20147;-66
2022/10/22 07:30:04;;;;;;;14.15;9.30;;;13.80;99.90;;;;;;5057823;28;20068;-66
2022/10/22 07:32:30;;;;;;;13.15;9.38;;;13.80;99.90;;;;;;5029927;28;20049;-66
2022/10/22 07:34:55;;;;;;;14.70;8.57;;;13.80;99.90;;;;;;5055893;28;20071;-67
2022/10/22 07:37:21;;;;;;;16.63;9.93;;;13.90;99.90;;;;;;5029242;28;20071;-67
2022/10/22 07:39:50;;;;;;;15.10;9.00;;;13.90;99.90;;;;;;5037496;28;20067;-66
2022/10/22 07:42:15;;;;;;;14.75;8.65;;;13.90;99.90;;;;;;5046065;28;20090;-67
2022/10/22 07:44:41;;;;;;;15.00;8.63;;;13.90;99.90;;;;;;5066297;28;20048;-66
2022/10/22 07:47:06;;;;;;;16.38;9.15;;;13.90;99.90;;;;;;5057639;28;20048;-66
2022/10/22 07:49:32;;;;;;;16.42;8.65;;;14.00;99.90;;;;;;5060400;28;20049;-63
2022/10/22 07:51:58;;;;;;;16.27;8.73;;;14.20;99.90;;;;;;5064832;28;20337;-63
2022/10/22 07:54:23;;;;;;;14.82;8.25;;;14.20;99.90;;;;;;5039591;28;20063;-64
2022/10/22 07:56:49;;;;;;;16.45;8.05;;;14.10;99.90;;;;;;5063171;28;20037;-63
2022/10/22 07:59:15;;;;;;;13.48;7.55;;;14.30;99.90;;;;;;5077624;28;20036;-62
2022/10/22 08:01:40;;;;;;;12.50;7.53;;;14.30;99.90;;;;;;5055578;28;20052;-64
2022/10/22 08:04:08;;;;;;;16.42;8.75;;;14.30;99.90;;;;;;5043538;28;20120;-63
2022/10/22 08:06:35;;;;;;;13.27;8.10;;;14.30;99.90;;;;;;5061533;28;20045;-63
2022/10/22 08:09:00;;;;;;;13.57;7.43;;;14.40;99.90;;;;;;5067753;28;20470;-64
2022/10/22 08:11:26;;;;;;;19.17;8.68;;;14.40;99.90;;;;;;5076135;28;20091;-64
2022/10/22 08:13:52;;;;;;;13.32;7.88;;;14.40;99.90;;;;;;5064761;28;20048;-63
2022/10/22 08:16:18;;;;;;;13.10;7.43;;;14.50;99.90;;;;;;5075892;28;20373;-64
2022/10/22 08:18:44;;;;;;;11.80;7.32;;;14.40;99.90;;;;;;5064744;28;20455;-64
2022/10/22 08:21:11;;;;;;;15.75;7.70;;;14.40;99.90;;;;;;5069727;28;20140;-64
2022/10/22 08:23:37;;;;;;;14.60;8.30;;;14.30;99.90;;;;;;5065371;28;20066;-70
2022/10/22 08:26:03;;;;;;;14.52;7.95;;;14.30;99.90;;;;;;5048031;28;20112;-64
2022/10/22 08:28:31;;;;;;;13.43;7.53;;;14.30;99.90;;;;;;5064605;28;20494;-65
2022/10/22 08:30:57;;;;;;;12.35;7.57;;;14.30;99.90;;;;;;5059155;28;20056;-63
2022/10/22 08:33:23;;;;;;;15.20;7.47;;;14.20;99.90;;;;;;5066886;28;20083;-63
2022/10/22 08:35:50;;;;;;;17.50;8.05;;;14.30;99.90;;;;;;5058084;28;20052;-63
2022/10/22 08:38:17;;;;;;;16.80;7.88;;;14.30;99.90;;;;;;5050679;28;20064;-66
2022/10/22 08:40:45;;;;;;;15.15;7.75;;;14.40;99.90;;;;;;5060893;28;20053;-64
2022/10/22 08:43:55;;;;;;;13.23;7.47;;;14.40;99.90;;;;;;5050401;28;20052;-64
2022/10/22 08:47:08;;;;;;;12.65;7.13;;;14.50;99.90;;;;;;5060759;28;20132;-64
2022/10/22 08:49:38;;;;;;;15.38;6.95;;;14.50;99.90;;;;;;4952019;28;20692;-68
2022/10/22 08:52:04;;;;;;;12.10;7.35;;;14.50;99.90;;;;;;4987419;28;20501;-66
2022/10/22 08:54:57;;;;;;;15.80;7.20;;;14.60;99.90;;;;;;4955633;28;20097;-67
2022/10/22 08:57:44;;;;;;;13.90;7.38;;;14.60;99.90;;;;;;4972823;28;20046;-67
2022/10/22 09:00:14;;;;;;;14.32;7.22;;;14.80;99.90;;;;;;4965632;28;20062;-65
2022/10/22 09:02:50;;;;;;;;;;;14.90;99.90;;;;;;4983800;28;20047;-65
2022/10/22 09:05:43;;;;;;;13.57;6.55;;;14.80;99.90;;;;;;4976435;28;19925;-65
2022/10/22 09:08:15;;;;;;;11.90;7.35;;;15.00;99.90;;;;;;4971826;28;20053;-65
2022/10/22 09:10:47;;;;;;;13.50;6.75;;;15.00;99.90;;;;;;4982893;28;20057;-65
2022/10/22 09:13:17;;;;;;;13.85;6.50;;;15.10;99.90;;;;;;4969968;28;20065;-65
2022/10/22 09:15:48;;;;;;;11.93;6.13;;;15.20;99.90;;;;;;4978995;28;20050;-66
2022/10/22 09:18:52;;;;;;;13.30;5.65;;;15.30;99.90;;;;;;4969889;28;20062;-65
2022/10/22 09:21:33;;;;;;;15.85;6.22;;;15.20;99.90;;;;;;4995554;28;20042;-65
2022/10/22 09:24:02;;;;;;;11.52;6.30;;;15.40;99.90;;;;;;4970648;28;20058;-65
2022/10/22 09:26:28;;;;;;;13.63;6.90;;;15.40;99.90;;;;;;5044413;28;20056;-65
2022/10/22 09:28:53;;;;;;;12.93;5.88;;;15.50;99.90;;;;;;5047978;28;20067;-65
2022/10/22 09:31:19;;;;;;;13.43;5.32;;;15.50;99.90;;;;;;5056579;28;20045;-65
2022/10/22 09:33:47;;;;;;;14.95;5.80;;;15.60;99.90;;;;;;5061118;28;20056;-65
2022/10/22 09:36:20;;;;;;;12.60;5.47;;;15.70;99.90;;;;;;5060831;28;20496;-64
2022/10/22 09:38:51;;;;;;;15.45;6.35;;;15.60;99.90;;;;;;5049921;28;20071;-64
2022/10/22 09:41:19;;;;;;;10.30;6.07;;;15.70;99.90;;;;;;5077669;28;20508;-64
2022/10/22 09:43:48;;;;;;;10.02;5.55;;;15.60;99.90;;;;;;5066803;28;20052;-65
2022/10/22 09:46:19;;;;;;;23.23;6.38;;;15.60;99.90;;;;;;5077679;28;20047;-65
2022/10/22 09:49:04;;;;;;;11.95;5.38;;;15.80;99.90;;;;;;5065190;28;20527;-64
2022/10/22 09:51:56;;;;;;;14.80;5.72;;;15.70;99.90;;;;;;5074607;28;20063;-64
2022/10/22 09:54:31;;;;;;;13.45;5.80;;;15.80;99.90;;;;;;5037454;28;20053;-65
2022/10/22 09:57:10;;;;;;;15.88;5.80;;;15.90;99.90;;;;;;5080264;28;20040;-64
2022/10/22 09:59:40;;;;;;;13.73;5.47;;;15.80;99.90;;;;;;5070194;28;20053;-64
2022/10/22 10:02:11;;;;;;;11.43;6.38;;;15.80;99.90;;;;;;5053110;28;20249;-65
2022/10/22 10:04:46;;;;;;;12.60;5.47;;;15.90;99.90;;;;;;5052858;28;20044;-66
2022/10/22 10:07:19;;;;;;;14.65;5.25;;;15.80;99.90;;;;;;5080875;28;20464;-66
2022/10/22 10:09:46;;;;;;;10.73;4.68;;;15.80;99.90;;;;;;5052573;28;20063;-65
2022/10/22 10:12:51;;;;;;;13.40;5.15;;;15.80;99.90;;;;;;5045344;28;20059;-66
2022/10/22 10:15:27;;;;;;;9.38;4.65;;;15.70;99.90;;;;;;4966633;28;20050;-66
2022/10/22 10:18:20;;;;;;;11.93;5.10;;;15.70;99.90;;;;;;4990144;28;20093;-65
2022/10/22 10:20:49;;;;;;;13.73;5.72;;;15.70;99.90;;;;;;5021967;28;20053;-65
2022/10/22 10:23:23;;;;;;;12.43;5.20;;;15.90;99.90;;;;;;5023207;28;20046;-66
2022/10/22 10:26:17;;;;;;;10.57;5.20;;;15.90;99.90;;;;;;5018877;28;20061;-67
2022/10/22 10:29:10;;;;;;;12.27;4.85;;;15.80;99.90;;;;;;4997856;28;20056;-65
2022/10/22 10:31:50;;;;;;;11.43;4.75;;;15.90;99.90;;;;;;4999187;28;20176;-65
2022/10/22 10:34:27;;;;;;;12.25;5.00;;;15.80;99.90;;;;;;5019242;28;20057;-63
2022/10/22 10:37:01;;;;;;;15.07;5.55;;;15.80;99.90;;;;;;4991698;28;20046;-64
2022/10/22 10:39:43;;;;;;;11.52;4.60;;;15.80;99.90;;;;;;4986451;28;20176;-63
2022/10/22 10:42:26;;;;;;;13.43;4.95;;;15.80;99.90;;;;;;5026877;28;20110;-64
2022/10/22 10:44:52;;;;;;;10.60;5.45;;;15.80;99.90;;;;;;5003541;28;20050;-63
2022/10/22 10:47:33;;;;;;;12.45;5.57;;;15.80;99.90;;;;;;5013667;28;20066;-63
2022/10/22 10:50:22;;;;;;;13.48;6.20;;;15.90;99.90;;;;;;5007407;28;20056;-63
2022/10/22 10:53:02;;;;;;;10.38;5.05;;;15.90;99.90;;;;;;5048839;28;20500;-67
2022/10/22 10:55:30;;;;;;;;;;;16.00;99.90;;;;;;5029728;28;20053;-62
2022/10/22 10:58:27;;;;;;;12.27;4.75;;;16.00;99.90;;;;;;5043729;28;20085;-62
2022/10/22 11:00:57;;;;;;;12.82;5.35;;;16.00;99.90;;;;;;5066693;28;20048;-62
2022/10/22 11:03:34;;;;;;;;;;;16.20;99.90;;;;;;5081302;28;20047;-62
2022/10/22 11:06:08;;;;;;;12.23;5.05;;;16.10;99.90;;;;;;5048021;28;20385;-65
2022/10/22 11:08:53;;;;;;;13.30;5.78;;;16.20;99.90;;;;;;5061688;28;20053;-63
2022/10/22 11:11:41;;;;;;;13.43;5.68;;;16.20;99.90;;;;;;5084103;28;20047;-65
2022/10/22 11:14:29;;;;;;;12.25;5.45;;;16.30;99.90;;;;;;5066621;28;20078;-65
2022/10/22 11:17:00;;;;;;;18.98;5.30;;;16.20;99.90;;;;;;5065721;28;20075;-65
2022/10/22 11:19:55;;;;;;;12.18;5.20;;;16.20;99.90;;;;;;5048506;28;20110;-65
2022/10/22 11:22:29;;;;;;;11.43;4.75;;;16.10;99.90;;;;;;5049803;28;20071;-65
2022/10/22 11:25:22;;;;;;;15.10;5.78;;;16.10;99.90;;;;;;5085024;28;20041;-65
2022/10/22 11:28:00;;;;;;;10.18;5.65;;;16.00;99.90;;;;;;5084556;28;20048;-66
2022/10/22 11:30:30;;;;;;;12.52;6.35;;;16.10;99.90;;;;;;5063777;28;20075;-65
2022/10/22 11:33:02;;;;;;;10.80;5.97;;;16.00;99.90;;;;;;5074378;28;20096;-65
2022/10/22 11:35:34;;;;;;;15.93;6.55;;;16.00;99.90;;;;;;5084321;28;20040;-65
2022/10/22 11:38:03;;;;;;;12.50;6.50;;;15.90;99.90;;;;;;5066061;28;20048;-65
2022/10/22 11:40:36;;;;;;;13.07;6.65;;;15.90;99.90;;;;;;5065477;28;20045;-65
2022/10/22 11:43:06;;;;;;;12.88;7.13;;;15.80;99.90;;;;;;5083415;28;20040;-65
2022/10/22 11:45:41;;;;;;;12.27;7.50;;;15.70;99.90;;;;;;5084666;28;20071;-65
2022/10/22 11:48:09;;;;;;;14.88;7.32;;;15.70;99.90;;;;;;5072522;28;20044;-65
2022/10/22 11:50:55;;;;;;;13.50;7.80;;;15.60;99.90;;;;;;5083009;28;20057;-65
2022/10/22 11:53:33;;;;;;;14.32;7.82;;;15.70;99.90;;;;;;5083333;28;20094;-65
2022/10/22 11:56:21;;;;;;;13.38;6.72;;;15.70;99.90;;;;;;5066785;28;20068;-65
2022/10/22 11:58:48;;;;;;;17.40;7.85;;;15.80;99.90;;;;;;5083570;28;20045;-65
2022/10/22 12:01:22;;;;;;;11.45;7.13;;;16.00;99.90;;;;;;5084648;28;20056;-65
2022/10/22 12:03:57;;;;;;;15.02;7.10;;;16.00;99.90;;;;;;5084057;28;20052;-65
2022/10/22 12:06:27;;;;;;;16.38;6.40;;;16.30;99.90;;;;;;5084645;28;20042;-65
2022/10/22 12:08:55;;;;;;;12.98;6.57;;;16.40;99.90;;;;;;5084832;28;20120;-65
2022/10/22 12:11:24;;;;;;;14.93;7.78;;;16.40;99.90;;;;;;5085087;28;20044;-65
2022/10/22 12:14:01;;;;;;;11.15;6.47;;;16.40;99.90;;;;;;5069142;28;20045;-65
2022/10/22 12:16:31;;;;;;;16.63;6.93;;;16.50;99.90;;;;;;5069330;28;20619;-65
2022/10/22 12:19:12;;;;;;;11.75;6.68;;;16.60;99.90;;;;;;5087514;28;20573;-65
2022/10/22 12:21:41;;;;;;;10.45;6.63;;;16.60;99.90;;;;;;5054980;28;20044;-65
2022/10/22 12:24:12;;;;;;;14.50;6.93;;;16.70;99.90;;;;;;5067439;28;20092;-65
2022/10/22 12:26:38;;;;;;;13.38;7.00;;;16.60;99.90;;;;;;5086715;28;20040;-65
2022/10/22 12:29:10;;;;;;;19.15;7.43;;;16.70;99.90;;;;;;5066465;28;20534;-65
2022/10/22 12:31:38;;;;;;;13.55;8.13;;;16.70;99.90;;;;;;5088145;28;20115;-65
2022/10/22 12:34:04;;;;;;;13.55;8.32;;;16.50;99.90;;;;;;5087977;28;20040;-65
2022/10/22 12:36:33;;;;;;;16.70;7.97;;;16.40;99.90;;;;;;5067712;28;20119;-65
2022/10/22 12:39:00;;;;;;;12.63;7.82;;;16.40;99.90;;;;;;5061365;28;20060;-65
2022/10/22 12:41:34;;;;;;;17.02;8.05;;;16.20;99.90;;;;;;5070093;28;20155;-65
2022/10/22 12:44:01;;;;;;;15.65;7.80;;;16.20;99.90;;;;;;5063707;28;20131;-65
2022/10/22 12:46:30;;;;;;;18.35;7.93;;;16.10;99.90;;;;;;5069286;28;20048;-65
2022/10/22 12:48:59;;;;;;;15.13;7.45;;;16.10;99.90;;;;;;5068109;28;20052;-65
2022/10/22 12:51:25;;;;;;;12.32;6.85;;;16.10;99.90;;;;;;5068186;28;20106;-65
2022/10/22 12:53:53;;;;;;;13.55;7.90;;;16.10;99.90;;;;;;5086047;28;20032;-65